Capitol Logistics 1854

Operating for CJT



CYWG
Winnipeg / James Armstrong Richardson International Airport
Winnipeg, CA
CYEG
Edmonton International Airport
Edmonton, CA

Activity Log

Date Flight Route Aircraft Duration
11/23/2021 CPX1854 ALKOG DEPMI MUSKK YQV J515 CAMRA IGSOX2 B763 2h 02m

Route Details

Aircraft Information
Group: North America Fleet
Types: B738,B752,B762,B763
Route Data
Demand: V
Distance: 642nm
Duration: 1h 40m
Recm'd Route: ALKOG DEPMI MUSKK YQV J515 CAMRA IGSOX2
Origin Wx: CYWG 272200Z 06002KT 15SM SCT120 BKN240 24/08 A2978 RMK AC4CI3 SLP089 DENSITY ALT 2200FT
Dest. Wx: CYEG 272200Z 00000KT 20SM SCT080 BKN100 BKN230 22/04 A2952 RMK CU4AS2CI1 SLP999 DENSITY ALT 4200FT
Notes:

Financial History
Total Freight: 62,360lbs
Average Load: 62,360lbs/flt
Fuel Used: 17,863lbs
Avg. Fuel Used: 17,863lbs/flt
Fuel Expense: $5,180
Avg. Fuel Expense: $5,180
Avg. Fuel Cost: $0.29/lbs
Total Gross Income: $154,653
Pilot Pay: $259
Total Expenses: $20,535
Total Revenue: $128,411
Average Revenue: $154,652.80